Time;durP1;ratioP1;P1;durP2;ratioP2;P2;SDS_P1;SDS_P2;PMS_P1;PMS_P2;Temp;Humidity;BMP_temperature;BMP_pressure;BME280_temperature;BME280_humidity;BME280_pressure;Samples;Min_cycle;Max_cycle;Signal;HPM_P1;HPM_P2
2022/03/16 00:01:33;;;;;;;;;;;5.40;99.90;;;;;;5136093;27;19962;-69
2022/03/16 00:03:59;;;;;;;;;;;5.40;99.90;;;;;;5135994;27;20017;-69
2022/03/16 00:06:25;;;;;;;;;;;5.50;99.90;;;;;;5135899;27;19923;-69
2022/03/16 00:08:50;;;;;;;;;;;6.10;99.90;;;;;;5135828;27;19930;-69
2022/03/16 00:11:16;;;;;;;;;;;5.50;99.90;;;;;;5152070;27;20026;-69
2022/03/16 00:13:41;;;;;;;;;;;5.50;99.90;;;;;;5117521;27;19966;-70
2022/03/16 00:16:07;;;;;;;;;;;6.00;99.90;;;;;;5117507;27;19946;-69
2022/03/16 00:18:32;;;;;;;;;;;5.40;99.90;;;;;;5135537;27;19934;-71
2022/03/16 00:20:59;;;;;;;;;;;5.60;99.90;;;;;;5135495;27;19927;-69
2022/03/16 00:23:25;;;;;;;;;;;5.60;99.90;;;;;;5135572;27;19923;-70
2022/03/16 00:25:51;;;;;;;;;;;5.20;99.90;;;;;;5135291;27;19924;-69
2022/03/16 00:28:16;;;;;;;;;;;5.20;99.90;;;;;;5151411;27;19968;-72
2022/03/16 00:30:42;;;;;;;;;;;5.90;99.90;;;;;;5135616;27;19923;-71
2022/03/16 00:33:08;;;;;;;;;;;5.20;99.90;;;;;;5135475;27;19934;-69
2022/03/16 00:35:34;;;;;;;;;;;5.20;99.90;;;;;;5135392;27;19946;-68
2022/03/16 00:37:59;;;;;;;;;;;5.20;99.90;;;;;;5135263;27;19971;-69
2022/03/16 00:40:25;;;;;;;;;;;5.20;99.90;;;;;;5135219;27;20309;-69
2022/03/16 00:42:51;;;;;;;;;;;5.20;99.90;;;;;;5135129;27;19923;-69
2022/03/16 00:45:16;;;;;;;;;;;5.20;99.90;;;;;;5135304;27;20415;-69
2022/03/16 00:47:42;;;;;;;;;;;4.70;99.90;;;;;;5135273;27;20010;-69
2022/03/16 00:50:08;;;;;;;;;;;5.60;99.90;;;;;;5117091;27;19985;-71
2022/03/16 00:52:33;;;;;;;;;;;5.20;99.90;;;;;;5135090;27;19931;-70
2022/03/16 00:54:59;;;;;;;;;;;5.10;99.90;;;;;;5134985;27;19931;-70
2022/03/16 00:57:24;;;;;;;;;;;5.10;99.90;;;;;;5134957;27;19923;-69
2022/03/16 00:59:50;;;;;;;;;;;5.70;99.90;;;;;;5134913;27;20006;-71
2022/03/16 01:02:15;;;;;;;;;;;5.50;99.90;;;;;;5134995;27;19931;-69
2022/03/16 01:04:41;;;;;;;;;;;5.20;99.90;;;;;;5134745;27;19976;-69
2022/03/16 01:07:07;;;;;;;;;;;5.00;99.90;;;;;;5116387;27;20002;-69
2022/03/16 01:09:34;;;;;;;;;;;4.90;99.90;;;;;;5116518;27;19950;-67
2022/03/16 01:12:00;;;;;;;;;;;5.80;99.90;;;;;;5151063;27;19975;-69
2022/03/16 01:14:26;;;;;;;;;;;6.10;99.90;;;;;;5115927;27;19938;-71
2022/03/16 01:16:51;;;;;;;;;;;4.90;99.90;;;;;;5151009;27;19923;-68
2022/03/16 01:19:17;;;;;;;;;;;4.90;99.90;;;;;;5116417;28;19949;-69
2022/03/16 01:21:44;;;;;;;;;;;4.90;99.90;;;;;;5151235;27;19923;-69
2022/03/16 01:24:09;;;;;;;;;;;4.80;99.90;;;;;;5134467;28;19927;-69
2022/03/16 01:26:35;;;;;;;;;;;4.90;99.90;;;;;;5134498;28;19930;-71
2022/03/16 01:29:01;;;;;;;;;;;5.40;99.90;;;;;;5116168;28;20026;-69
2022/03/16 01:31:27;;;;;;;;;;;4.80;99.90;;;;;;5132907;28;19928;-71
2022/03/16 01:33:52;;;;;;;;;;;5.30;99.90;;;;;;5134712;28;19931;-72
2022/03/16 01:36:18;;;;;;;;;;;6.00;99.90;;;;;;5150760;27;19927;-69
2022/03/16 01:38:44;;;;;;;;;;;4.40;99.90;;;;;;5134620;28;19930;-69
2022/03/16 01:41:10;;;;;;;;;;;4.70;99.90;;;;;;5134418;28;20378;-69
2022/03/16 01:43:36;;;;;;;;;;;4.70;99.90;;;;;;5134490;28;19931;-68
2022/03/16 01:46:01;;;;;;;;;;;5.60;99.90;;;;;;5134354;28;19923;-69
2022/03/16 01:51:49;;;;;;;;;;;4.60;99.90;;;;;;5133824;28;19977;-69
2022/03/16 01:54:15;;;;;;;;;;;4.60;99.90;;;;;;5134297;28;19924;-68
2022/03/16 01:56:41;;;;;;;;;;;4.60;99.90;;;;;;5134044;28;19924;-69
2022/03/16 01:59:06;;;;;;;;;;;4.60;99.90;;;;;;5134467;28;19923;-69
2022/03/16 02:01:32;;;;;;;;;;;4.60;99.90;;;;;;5116297;28;19950;-71
2022/03/16 02:03:57;;;;;;;;;;;4.60;99.90;;;;;;5134286;28;19963;-69
2022/03/16 02:06:23;;;;;;;;;;;4.60;99.90;;;;;;5134254;28;19930;-69
2022/03/16 02:08:49;;;;;;;;;;;4.50;99.90;;;;;;5134181;28;19924;-73
2022/03/16 02:11:14;;;;;;;;;;;5.40;99.90;;;;;;5134040;28;19924;-68
2022/03/16 02:13:40;;;;;;;;;;;4.50;99.90;;;;;;5115969;28;20002;-69
2022/03/16 02:16:08;;;;;;;;;;;4.50;99.90;;;;;;5150567;27;19968;-68
2022/03/16 02:18:34;;;;;;;;;;;2.70;99.90;;;;;;5138034;27;19946;-68
2022/03/16 02:21:02;;;;;;;;;;;4.50;99.90;;;;;;5137877;27;20362;-67
2022/03/16 02:23:28;;;;;;;;;;;4.40;99.90;;;;;;5137700;27;19923;-72
2022/03/16 02:25:54;;;;;;;;;;;4.50;99.90;;;;;;5137598;27;19923;-68
2022/03/16 02:28:21;;;;;;;;;;;4.40;99.90;;;;;;5137842;27;20371;-69
2022/03/16 02:30:47;;;;;;;;;;;4.50;99.90;;;;;;5137860;27;19928;-73
2022/03/16 02:33:12;;;;;;;;;;;6.10;99.90;;;;;;5137845;27;19989;-69
2022/03/16 02:35:38;;;;;;;;;;;4.30;99.90;;;;;;5119661;27;19927;-69
2022/03/16 02:38:03;;;;;;;;;;;4.30;99.90;;;;;;5153956;27;19931;-69
2022/03/16 02:40:29;;;;;;;;;;;5.30;99.90;;;;;;5137531;27;20006;-68
2022/03/16 02:42:55;;;;;;;;;;;4.30;99.90;;;;;;5153606;27;19923;-69
2022/03/16 02:45:21;;;;;;;;;;;4.30;99.90;;;;;;5137586;27;19923;-69
2022/03/16 02:47:47;;;;;;;;;;;4.30;99.90;;;;;;5137504;27;20013;-69
2022/03/16 02:50:13;;;;;;;;;;;4.20;99.90;;;;;;5119430;27;19929;-69
2022/03/16 02:52:39;;;;;;;;;;;5.60;99.90;;;;;;5137383;27;19993;-70
2022/03/16 02:55:05;;;;;;;;;;;4.90;99.90;;;;;;5137305;27;20402;-69
2022/03/16 02:57:31;;;;;;;;;;;4.30;99.90;;;;;;5137135;27;19923;-73
2022/03/16 02:59:56;;;;;;;;;;;4.20;99.90;;;;;;5137310;27;20374;-69
2022/03/16 03:02:22;;;;;;;;;;;5.10;99.90;;;;;;5137249;27;19923;-69
2022/03/16 03:04:47;;;;;;;;;;;4.80;99.90;;;;;;5137155;27;19931;-70
2022/03/16 03:07:13;;;;;;;;;;;4.10;99.90;;;;;;5137074;27;20389;-71
2022/03/16 03:09:39;;;;;;;;;;;4.20;99.90;;;;;;5137043;27;19923;-69
2022/03/16 03:12:05;;;;;;;;;;;4.20;99.90;;;;;;5136862;27;19930;-72
2022/03/16 03:14:30;;;;;;;;;;;4.20;99.90;;;;;;5137134;27;19931;-72
2022/03/16 03:16:56;;;;;;;;;;;4.20;99.90;;;;;;5153180;27;19923;-71
2022/03/16 03:19:21;;;;;;;;;;;4.20;99.90;;;;;;5136821;27;19968;-72
2022/03/16 03:21:47;;;;;;;;;;;6.10;99.90;;;;;;5153245;27;19923;-69
2022/03/16 03:24:13;;;;;;;;;;;4.80;99.90;;;;;;5101065;27;19931;-69
2022/03/16 03:26:38;;;;;;;;;;;4.20;99.90;;;;;;5152859;27;19928;-68
2022/03/16 03:29:04;;;;;;;;;;;4.20;99.90;;;;;;5135615;27;19923;-69
2022/03/16 03:31:29;;;;;;;;;;;5.60;99.90;;;;;;5136826;27;19924;-71
2022/03/16 03:33:55;;;;;;;;;;;5.80;99.90;;;;;;5136675;27;20379;-68
2022/03/16 03:36:21;;;;;;;;;;;4.70;99.90;;;;;;5136526;27;19930;-69
2022/03/16 03:38:46;;;;;;;;;;;4.60;99.90;;;;;;5136472;27;19927;-70
2022/03/16 03:41:12;;;;;;;;;;;4.20;99.90;;;;;;5136339;27;20263;-69
2022/03/16 03:43:37;;;;;;;;;;;5.40;99.90;;;;;;5136347;27;19923;-69
2022/03/16 03:46:03;;;;;;;;;;;4.10;99.90;;;;;;5118445;27;19931;-69
2022/03/16 03:48:29;;;;;;;;;;;4.10;99.90;;;;;;5152372;27;19930;-71
2022/03/16 03:50:54;;;;;;;;;;;4.80;99.90;;;;;;5151875;27;19923;-70
2022/03/16 03:53:20;;;;;;;;;;;4.20;99.90;;;;;;5136233;27;19976;-70
2022/03/16 03:55:45;;;;;;;;;;;4.70;99.90;;;;;;5136149;27;20282;-69
2022/03/16 03:58:11;;;;;;;;;;;3.70;99.90;;;;;;5117967;27;19923;-69
2022/03/16 04:00:37;;;;;;;;;;;3.60;99.90;;;;;;5135890;27;20394;-68
2022/03/16 04:03:02;;;;;;;;;;;3.80;99.90;;;;;;5135986;27;19923;-69
2022/03/16 04:05:28;;;;;;;;;;;3.80;99.90;;;;;;5136010;27;20051;-68
2022/03/16 04:07:53;;;;;;;;;;;3.60;99.90;;;;;;5135935;27;20278;-68
2022/03/16 04:10:19;;;;;;;;;;;4.30;99.90;;;;;;5135735;27;20390;-67
2022/03/16 04:12:45;;;;;;;;;;;3.70;99.90;;;;;;5117426;27;19923;-69
2022/03/16 04:15:10;;;;;;;;;;;4.70;99.90;;;;;;5135578;27;19968;-71
2022/03/16 04:17:36;;;;;;;;;;;3.90;99.90;;;;;;5152188;27;20259;-70
2022/03/16 04:20:02;;;;;;;;;;;3.70;99.90;;;;;;5152036;27;19923;-68
2022/03/16 04:22:28;;;;;;;;;;;3.70;99.90;;;;;;5135742;27;19923;-71
2022/03/16 04:24:54;;;;;;;;;;;3.70;99.90;;;;;;5135438;27;19980;-69
2022/03/16 04:27:20;;;;;;;;;;;3.70;99.90;;;;;;5135324;27;19927;-69
2022/03/16 04:29:46;;;;;;;;;;;4.00;99.90;;;;;;5117060;27;19923;-70
2022/03/16 04:32:12;;;;;;;;;;;3.60;99.90;;;;;;5117222;27;19928;-68
2022/03/16 04:34:37;;;;;;;;;;;4.40;99.90;;;;;;5117465;27;19923;-69
2022/03/16 04:37:03;;;;;;;;;;;3.70;99.90;;;;;;5135433;27;19924;-70
2022/03/16 04:39:29;;;;;;;;;;;2.60;99.90;;;;;;5135274;27;19927;-72
2022/03/16 04:41:54;;;;;;;;;;;4.00;99.90;;;;;;5135250;27;20294;-68
2022/03/16 04:44:20;;;;;;;;;;;4.30;99.90;;;;;;5151485;27;19927;-69
2022/03/16 04:46:45;;;;;;;;;;;4.80;99.90;;;;;;5135042;27;19931;-68
2022/03/16 04:49:11;;;;;;;;;;;4.50;99.90;;;;;;5151401;27;19923;-69
2022/03/16 04:51:36;;;;;;;;;;;3.70;99.90;;;;;;5135256;27;19976;-69
2022/03/16 04:54:02;;;;;;;;;;;3.70;99.90;;;;;;5151446;27;20449;-72
2022/03/16 04:56:28;;;;;;;;;;;3.70;99.90;;;;;;5134955;27;20039;-69
2022/03/16 04:58:54;;;;;;;;;;;4.60;99.90;;;;;;5116642;27;19924;-68
2022/03/16 05:01:20;;;;;;;;;;;4.40;99.90;;;;;;5134840;27;20330;-68
2022/03/16 05:03:46;;;;;;;;;;;4.00;99.90;;;;;;5151537;27;19924;-69
2022/03/16 05:06:11;;;;;;;;;;;4.50;99.90;;;;;;5135078;27;20397;-68
2022/03/16 05:08:37;;;;;;;;;;;3.70;99.90;;;;;;5133522;27;19924;-68
2022/03/16 05:11:04;;;;;;;;;;;4.80;99.90;;;;;;5135199;27;19928;-69
2022/03/16 05:13:30;;;;;;;;;;;3.60;99.90;;;;;;5151158;27;19923;-69
2022/03/16 05:15:55;;;;;;;;;;;3.70;99.90;;;;;;5135216;27;20015;-68
2022/03/16 05:18:23;;;;;;;;;;;3.10;99.90;;;;;;5134886;27;19923;-68
2022/03/16 05:20:48;;;;;;;;;;;3.70;99.90;;;;;;5134779;27;20022;-67
2022/03/16 05:23:14;;;;;;;;;;;3.70;99.90;;;;;;5116441;28;19975;-69
2022/03/16 05:25:41;;;;;;;;;;;3.70;99.90;;;;;;5116531;28;19923;-69
2022/03/16 05:28:07;;;;;;;;;;;3.70;99.90;;;;;;5134497;28;20018;-68
2022/03/16 05:30:33;;;;;;;;;;;4.00;99.90;;;;;;5134629;28;20018;-69
2022/03/16 05:33:02;;;;;;;;;;;3.70;99.90;;;;;;5134571;28;20339;-72
2022/03/16 05:35:28;;;;;;;;;;;3.70;99.90;;;;;;5134777;28;19971;-68
2022/03/16 05:37:54;;;;;;;;;;;3.80;99.90;;;;;;5134598;28;19923;-70
2022/03/16 05:40:20;;;;;;;;;;;3.70;99.90;;;;;;5150156;27;19972;-68
2022/03/16 05:42:45;;;;;;;;;;;3.70;99.90;;;;;;5134501;28;19931;-71
2022/03/16 05:45:11;;;;;;;;;;;4.30;99.90;;;;;;5134536;28;20378;-68
2022/03/16 05:47:37;;;;;;;;;;;4.20;99.90;;;;;;5134446;28;19924;-69
2022/03/16 05:50:03;;;;;;;;;;;4.00;99.90;;;;;;5134351;28;19923;-68
2022/03/16 05:52:31;;;;;;;;;;;3.70;99.90;;;;;;5136727;27;20022;-71
2022/03/16 05:54:57;;;;;;;;;;;4.60;99.90;;;;;;5138515;27;20378;-70
2022/03/16 05:57:23;;;;;;;;;;;3.70;99.90;;;;;;5138347;27;20401;-69
2022/03/16 05:59:49;;;;;;;;;;;4.90;99.90;;;;;;5138330;27;19927;-71
2022/03/16 06:02:14;;;;;;;;;;;3.70;99.90;;;;;;5138245;27;20378;-72
2022/03/16 06:04:40;;;;;;;;;;;3.80;99.90;;;;;;5138426;27;19928;-69
2022/03/16 06:07:06;;;;;;;;;;;4.00;99.90;;;;;;5138373;27;19931;-68
2022/03/16 06:09:32;;;;;;;;;;;4.30;99.90;;;;;;5138167;27;19923;-71
2022/03/16 06:11:58;;;;;;;;;;;3.80;99.90;;;;;;5154548;27;20279;-71
2022/03/16 06:14:24;;;;;;;;;;;5.60;99.90;;;;;;5138087;27;20058;-69
2022/03/16 06:16:50;;;;;;;;;;;3.80;99.90;;;;;;5138034;27;19923;-71
2022/03/16 06:19:15;;;;;;;;;;;3.80;99.90;;;;;;5119894;27;19923;-68
2022/03/16 06:21:41;;;;;;;;;;;3.80;99.90;;;;;;5138045;27;20023;-70
2022/03/16 06:24:07;;;;;;;;;;;3.80;99.90;;;;;;5137979;27;19930;-68
2022/03/16 06:26:32;;;;;;;;;;;3.90;99.90;;;;;;5137732;27;19927;-69
2022/03/16 06:28:58;;;;;;;;;;;5.00;99.90;;;;;;5137819;27;19931;-70
2022/03/16 06:31:24;;;;;;;;;;;5.50;99.90;;;;;;5137639;27;20018;-69
2022/03/16 06:33:49;;;;;;;;;;;4.00;99.90;;;;;;5153210;27;19927;-66
2022/03/16 06:36:15;;;;;;;;;;;5.20;99.90;;;;;;5137818;27;20015;-68
2022/03/16 06:38:41;;;;;;;;;;;4.70;99.90;;;;;;5137952;27;19924;-69
2022/03/16 06:41:06;;;;;;;;;;;4.00;99.90;;;;;;5137651;27;20010;-68
2022/03/16 06:43:32;;;;;;;;;;;4.70;99.90;;;;;;5137565;27;19932;-69
2022/03/16 06:45:57;;;;;;;;;;;5.10;99.90;;;;;;5153886;27;20014;-69
2022/03/16 06:48:23;;;;;;;;;;;4.10;99.90;;;;;;5118831;27;20039;-68
2022/03/16 06:50:50;;;;;;;;;;;4.10;99.90;;;;;;5137615;27;19927;-68
2022/03/16 06:53:16;;;;;;;;;;;4.40;99.90;;;;;;5153574;27;19924;-68
2022/03/16 06:55:42;;;;;;;;;;;4.70;99.90;;;;;;5137337;27;20006;-70
2022/03/16 06:58:07;;;;;;;;;;;5.10;99.90;;;;;;5118948;27;19924;-68
2022/03/16 07:00:33;;;;;;;;;;;4.70;99.90;;;;;;5137220;27;19945;-69
2022/03/16 07:03:00;;;;;;;;;;;4.80;99.90;;;;;;5136234;27;20073;-69
2022/03/16 07:05:27;;;;;;;;;;;4.80;99.90;;;;;;5137037;27;20378;-69
2022/03/16 07:07:54;;;;;;;;;;;4.40;99.90;;;;;;5119074;27;19923;-68
2022/03/16 07:10:20;;;;;;;;;;;4.40;99.90;;;;;;5137145;27;19923;-69
2022/03/16 07:12:45;;;;;;;;;;;4.40;99.90;;;;;;5119019;27;19930;-69
2022/03/16 07:15:11;;;;;;;;;;;4.50;99.90;;;;;;5136971;27;19924;-70
2022/03/16 07:17:37;;;;;;;;;;;3.40;99.90;;;;;;5136927;27;19969;-72
2022/03/16 07:20:04;;;;;;;;;;;5.90;99.90;;;;;;5136787;27;19980;-69
2022/03/16 07:22:29;;;;;;;;;;;4.50;99.90;;;;;;5101734;27;20014;-68
2022/03/16 07:24:55;;;;;;;;;;;4.80;99.90;;;;;;5136698;27;19966;-69
2022/03/16 07:27:20;;;;;;;;;;;4.60;99.90;;;;;;5118620;27;20340;-68
2022/03/16 07:29:46;;;;;;;;;;;4.70;99.90;;;;;;5152712;27;19924;-69
2022/03/16 07:32:12;;;;;;;;;;;4.60;99.90;;;;;;5136652;27;19924;-73
2022/03/16 07:34:38;;;;;;;;;;;6.60;99.90;;;;;;5136501;27;19967;-69
2022/03/16 07:37:03;;;;;;;;;;;6.00;99.90;;;;;;5118468;27;19975;-71
2022/03/16 07:39:29;;;;;;;;;;;4.80;99.90;;;;;;5136552;27;19985;-68
2022/03/16 07:41:54;;;;;;;;;;;4.80;99.90;;;;;;5152818;27;19995;-69
2022/03/16 07:44:20;;;;;;;;;;;4.90;99.90;;;;;;5136424;27;19924;-70
2022/03/16 07:46:46;;;;;;;;;;;4.90;99.90;;;;;;5151978;27;19924;-69
2022/03/16 07:49:11;;;;;;;;;;;5.00;99.90;;;;;;5117829;27;20377;-69
2022/03/16 07:51:37;;;;;;;;;;;5.00;99.90;;;;;;5117100;27;19928;-69
2022/03/16 07:54:02;;;;;;;;;;;5.10;99.90;;;;;;5136358;27;20297;-69
2022/03/16 07:56:28;;;;;;;;;;;5.10;99.90;;;;;;5117912;27;20302;-68
2022/03/16 07:58:54;;;;;;;;;;;5.50;99.90;;;;;;5136010;27;19966;-70
2022/03/16 08:01:20;;;;;;;;;;;5.20;99.90;;;;;;5117983;27;19923;-70
2022/03/16 08:03:46;;;;;;;;;;;5.20;99.90;;;;;;5135967;27;19923;-68
2022/03/16 08:06:12;;;;;;;;;;;7.00;99.90;;;;;;5151966;27;19924;-68
2022/03/16 08:08:39;;;;;;;;;;;5.30;99.90;;;;;;5135996;27;20283;-72
2022/03/16 08:11:08;;;;;;;;;;;5.40;99.90;;;;;;5151991;27;19923;-71
2022/03/16 08:13:34;;;;;;;;;;;6.10;99.90;;;;;;5135835;27;19931;-68
2022/03/16 08:16:00;;;;;;;;;;;6.70;99.90;;;;;;5135456;27;19923;-70
2022/03/16 08:18:25;;;;;;;;;;;5.60;99.90;;;;;;5135690;27;19924;-68
2022/03/16 08:20:51;;;;;;;;;;;5.60;99.90;;;;;;5135878;27;19931;-69
2022/03/16 08:23:16;;;;;;;;;;;5.60;99.90;;;;;;5135810;27;19923;-69
2022/03/16 08:25:42;;;;;;;;;;;5.70;99.90;;;;;;5151313;27;20332;-70
2022/03/16 08:28:07;;;;;;;;;;;5.90;99.90;;;;;;5135398;27;20301;-68
2022/03/16 08:30:34;;;;;;;;;;;6.10;99.90;;;;;;5135476;27;19924;-69
2022/03/16 08:33:01;;;;;;;;;;;6.10;99.90;;;;;;5135419;27;19976;-68
2022/03/16 08:35:27;;;;;;;;;;;6.10;99.90;;;;;;5135282;27;20026;-69
2022/03/16 08:37:52;;;;;;;;;;;6.00;99.90;;;;;;5117473;27;19923;-69
2022/03/16 08:40:18;;;;;;;;;;;6.10;99.90;;;;;;5135366;27;19984;-71
2022/03/16 08:42:44;;;;;;;;;;;6.20;99.90;;;;;;5135299;27;20388;-69
2022/03/16 08:45:10;;;;;;;;;;;6.30;99.90;;;;;;5117233;27;19927;-69
2022/03/16 08:47:37;;;;;;;;;;;6.40;99.90;;;;;;5117174;27;19966;-69
2022/03/16 08:50:03;;;;;;;;;;;6.50;99.90;;;;;;5135178;27;19924;-71
2022/03/16 08:52:28;;;;;;;;;;;6.50;99.90;;;;;;5116858;27;19932;-69
2022/03/16 08:54:54;;;;;;;;;;;6.60;99.90;;;;;;5135230;27;19924;-69
2022/03/16 08:57:22;;;;;;;;;;;6.70;99.90;;;;;;5135153;27;19930;-71
2022/03/16 08:59:48;;;;;;;;;;;6.80;99.90;;;;;;5135049;27;19924;-69
2022/03/16 09:02:14;;;;;;;;;;;7.70;99.90;;;;;;5116607;27;19931;-70
2022/03/16 09:04:39;;;;;;;;;;;7.40;99.90;;;;;;5134873;27;20336;-73
2022/03/16 09:07:05;;;;;;;;;;;7.10;99.90;;;;;;5134774;27;20374;-70
2022/03/16 09:09:31;;;;;;;;;;;7.10;99.90;;;;;;5134950;27;20018;-72
2022/03/16 09:11:57;;;;;;;;;;;7.10;99.90;;;;;;5134851;27;20382;-69
2022/03/16 09:14:22;;;;;;;;;;;7.20;99.90;;;;;;5134906;27;19931;-69
2022/03/16 09:16:48;;;;;;;;;;;8.20;99.90;;;;;;5134767;27;20026;-68
2022/03/16 09:19:20;;;;;;;;;;;7.40;99.90;;;;;;5134574;27;19931;-69
2022/03/16 09:21:47;;;;;;;;;;;7.50;99.90;;;;;;5134605;27;19937;-69
2022/03/16 09:24:13;;;;;;;;;;;7.60;99.90;;;;;;5134598;28;20378;-69
2022/03/16 09:26:39;;;;;;;;;;;7.70;99.90;;;;;;5133824;27;19928;-68
2022/03/16 09:29:08;;;;;;;;;;;8.40;99.90;;;;;;5134648;28;19923;-69
2022/03/16 09:31:36;;;;;;;;;;;7.90;99.90;;;;;;5116582;28;19923;-72
2022/03/16 09:34:05;;;;;;;;;;;8.30;99.90;;;;;;5134613;28;19923;-69
2022/03/16 09:36:32;;;;;;;;;;;8.20;99.90;;;;;;5116168;28;19923;-69
2022/03/16 09:38:57;;;;;;;;;;;8.20;99.90;;;;;;5134665;28;19970;-69
2022/03/16 09:41:24;;;;;;;;;;;8.60;99.90;;;;;;5116456;28;19931;-70
2022/03/16 09:43:50;;;;;;;;;;;8.50;99.90;;;;;;5116545;28;19923;-70
2022/03/16 09:46:19;;;;;;;;;;;8.60;99.90;;;;;;5116524;28;19978;-69
2022/03/16 09:48:45;;;;;;;;;;;8.70;99.90;;;;;;5134429;28;20022;-70
2022/03/16 09:51:11;;;;;;;;;;;8.70;99.90;;;;;;5134588;28;20083;-69
2022/03/16 09:53:37;;;;;;;;;;;8.90;99.90;;;;;;5134600;28;19931;-69
2022/03/16 09:56:03;;;;;;;;;;;9.00;99.90;;;;;;5134481;28;20014;-69
2022/03/16 09:58:28;;;;;;;;;;;9.10;99.90;;;;;;5150775;27;19971;-69
2022/03/16 10:00:55;;;;;;;;;;;9.20;99.90;;;;;;5134415;28;19961;-69
2022/03/16 10:03:22;;;;;;;;;;;9.30;99.90;;;;;;5134248;28;20018;-71
2022/03/16 10:05:48;;;;;;;;;;;9.60;99.90;;;;;;5115960;28;20010;-72
2022/03/16 10:08:24;;;;;;;;;;;9.00;99.90;;;;;;5134387;28;19931;-70
2022/03/16 10:13:34;;;;;;;;;;;9.70;99.90;;;;;;5150660;27;19993;-70
2022/03/16 10:16:10;;;;;;;;;;;10.00;99.90;;;;;;5134186;28;19978;-68
2022/03/16 10:18:36;;;;;;;;;;;9.60;99.90;;;;;;5134411;28;20327;-70
2022/03/16 10:21:03;;;;;;;;;;;10.20;99.90;;;;;;5150269;27;20305;-73
2022/03/16 10:23:29;;;;;;;;;;;10.20;99.90;;;;;;5134208;28;19928;-69
2022/03/16 10:25:58;;;;;;;;;;;10.50;99.90;;;;;;5093239;28;19931;-69
2022/03/16 10:28:30;;;;;;;;;;;11.10;99.90;;;;;;5092142;28;20015;-71
2022/03/16 10:31:02;;;;;;;;;;;10.60;99.90;;;;;;5093084;28;19924;-69
2022/03/16 10:33:30;;;;;;;;;;;10.60;99.90;;;;;;5092509;28;19932;-68
2022/03/16 10:36:05;;;;;;;;;;;10.80;99.90;;;;;;5093388;28;19974;-72
2022/03/16 10:38:37;;;;;;;;;;;10.80;99.90;;;;;;5095112;28;19925;-70
2022/03/16 10:41:11;;;;;;;;;;;10.90;99.90;;;;;;5096665;28;19924;-71
2022/03/16 10:46:37;;;;;;;;;;;11.10;99.90;;;;;;5096508;28;20375;-69
2022/03/16 10:49:03;;;;;;;;;;;11.20;99.90;;;;;;5096545;28;20398;-69
2022/03/16 10:51:29;;;;;;;;;;;11.30;99.90;;;;;;5096515;28;20010;-69
2022/03/16 10:53:55;;;;;;;;;;;11.40;99.90;;;;;;5096384;28;19931;-69
2022/03/16 10:56:20;;;;;;;;;;;11.40;99.90;;;;;;5095226;28;19933;-70
2022/03/16 10:58:48;;;;;;;;;;;11.50;99.90;;;;;;5096545;28;19931;-69
2022/03/16 11:01:15;;;;;;;;;;;11.50;99.90;;;;;;5096330;28;19924;-69
2022/03/16 11:03:43;;;;;;;;;;;11.50;99.90;;;;;;5096318;28;20329;-70
2022/03/16 11:06:09;;;;;;;;;;;11.60;99.90;;;;;;5129229;27;19935;-70
2022/03/16 11:08:37;;;;;;;;;;;11.70;99.90;;;;;;5096014;28;19924;-70
2022/03/16 11:13:48;;;;;;;;;;;11.80;99.90;;;;;;5129256;27;19931;-70
2022/03/16 11:16:20;;;;;;;;;;;11.90;99.90;;;;;;5111660;28;19924;-69
2022/03/16 11:18:50;;;;;;;;;;;10.80;99.90;;;;;;5129212;27;19932;-70
2022/03/16 11:21:23;;;;;;;;;;;12.10;99.90;;;;;;5095766;28;20295;-70
2022/03/16 11:26:53;;;;;;;;;;;11.30;99.90;;;;;;5136712;27;19923;-69
2022/03/16 11:29:32;;;;;;;;;;;12.10;99.90;;;;;;5136530;27;20409;-70
2022/03/16 11:32:11;;;;;;;;;;;12.20;99.90;;;;;;5136505;27;19930;-72
2022/03/16 11:34:36;;;;;;;;;;;12.20;99.90;;;;;;5117972;27;19923;-70
2022/03/16 11:37:03;;;;;;;;;;;12.20;99.90;;;;;;5136459;27;19948;-71
2022/03/16 11:39:38;;;;;;;;;;;12.30;99.90;;;;;;5136498;27;19934;-69
2022/03/16 11:42:06;;;;;;;;;;;12.30;99.90;;;;;;5136460;27;19931;-73
2022/03/16 11:44:33;;;;;;;;;;;12.40;99.90;;;;;;5136332;27;19923;-71
2022/03/16 11:47:10;;;;;;;;;;;12.40;99.90;;;;;;5136501;27;20022;-70
2022/03/16 11:49:38;;;;;;;;;;;11.90;99.90;;;;;;5135688;27;19924;-73
2022/03/16 11:52:05;;;;;;;;;;;12.50;99.90;;;;;;5136325;27;19924;-71
2022/03/16 11:54:43;;;;;;;;;;;12.60;99.90;;;;;;5136197;27;20010;-69
2022/03/16 11:57:09;;;;;;;;;;;12.70;99.90;;;;;;5135993;27;19928;-69
2022/03/16 11:59:36;;;;;;;;;;;12.80;99.90;;;;;;5135987;27;20408;-70
2022/03/16 12:02:06;;;;;;;;;;;12.80;99.90;;;;;;5136162;27;19931;-70
2022/03/16 12:04:33;;;;;;;;;;;12.80;99.90;;;;;;5117718;27;19923;-70
2022/03/16 12:07:02;;;;;;;;;;;12.80;99.90;;;;;;5136000;27;19927;-69
2022/03/16 12:09:31;;;;;;;;;;;12.80;99.90;;;;;;5134743;27;19923;-70
2022/03/16 12:14:58;;;;;;;;;;;12.90;99.90;;;;;;5152216;27;19931;-70
2022/03/16 12:17:24;;;;;;;;;;;13.00;99.90;;;;;;5117479;27;19930;-70
2022/03/16 12:20:06;;;;;;;;;;;13.10;99.90;;;;;;5117317;27;20006;-70
2022/03/16 12:22:36;;;;;;;;;;;13.20;99.90;;;;;;5151892;27;19972;-69
2022/03/16 12:25:21;;;;;;;;;;;13.20;99.90;;;;;;5135438;27;19931;-69
2022/03/16 12:30:36;;;;;;;;;;;13.40;99.90;;;;;;5135471;27;19968;-70
2022/03/16 12:33:02;;;;;;;;;;;13.40;99.90;;;;;;5135397;27;19924;-70
2022/03/16 12:35:34;;;;;;;;;;;13.40;99.90;;;;;;5135804;27;19931;-70
2022/03/16 12:38:01;;;;;;;;;;;13.40;99.90;;;;;;5135525;27;20267;-70
2022/03/16 12:40:29;;;;;;;;;;;13.40;99.90;;;;;;5117273;27;20014;-70
2022/03/16 12:42:57;;;;;;;;;;;13.40;99.90;;;;;;5117005;27;19924;-72
2022/03/16 12:45:25;;;;;;;;;;;14.00;99.90;;;;;;5135143;27;20022;-69
2022/03/16 12:48:04;;;;;;;;;;;13.50;99.90;;;;;;5116993;27;20463;-70
2022/03/16 12:50:30;;;;;;;;;;;13.50;99.90;;;;;;5151113;27;20435;-70
2022/03/16 12:52:55;;;;;;;;;;;13.50;99.90;;;;;;5135155;27;19923;-70
2022/03/16 12:55:21;;;;;;;;;;;13.50;99.90;;;;;;5135130;27;20386;-70
2022/03/16 12:57:50;;;;;;;;;;;13.50;99.90;;;;;;5117072;27;20351;-71
2022/03/16 13:00:17;;;;;;;;;;;13.50;99.90;;;;;;5134901;27;19927;-70
2022/03/16 13:02:44;;;;;;;;;;;13.50;99.90;;;;;;5116183;27;19924;-70
2022/03/16 13:05:10;;;;;;;;;;;13.50;99.90;;;;;;5135021;27;19969;-70
2022/03/16 13:07:37;;;;;;;;;;;13.60;99.90;;;;;;5134994;27;19923;-70
2022/03/16 13:10:04;;;;;;;;;;;13.60;99.90;;;;;;5134774;27;19923;-73
2022/03/16 13:12:30;;;;;;;;;;;13.60;99.90;;;;;;5134666;27;20019;-72
2022/03/16 13:14:57;;;;;;;;;;;13.60;99.90;;;;;;5116426;28;19979;-70
2022/03/16 13:17:24;;;;;;;;;;;13.60;99.90;;;;;;5116933;28;19930;-70
2022/03/16 13:19:53;;;;;;;;;;;13.60;99.90;;;;;;5134895;27;20297;-70
2022/03/16 13:22:20;;;;;;;;;;;13.60;99.90;;;;;;5116749;28;19935;-72
2022/03/16 13:24:53;;;;;;;;;;;13.60;99.90;;;;;;5134627;27;19923;-70
2022/03/16 13:27:21;;;;;;;;;;;13.60;99.90;;;;;;5134442;28;19927;-70
2022/03/16 13:29:50;;;;;;;;;;;13.50;99.90;;;;;;5134672;28;19923;-70
2022/03/16 13:32:19;;;;;;;;;;;13.50;99.90;;;;;;5134733;28;19924;-69
2022/03/16 13:34:45;;;;;;;;;;;13.50;99.90;;;;;;5134641;28;20370;-72
2022/03/16 13:37:27;;;;;;;;;;;13.50;99.90;;;;;;5134535;28;20461;-73
2022/03/16 13:39:59;;;;;;;;;;;13.50;99.90;;;;;;5134456;28;19923;-70
2022/03/16 13:42:28;;;;;;;;;;;13.50;99.90;;;;;;5134613;28;20549;-70
2022/03/16 13:45:09;;;;;;;;;;;13.50;99.90;;;;;;5116383;28;19931;-70
2022/03/16 13:47:35;;;;;;;;;;;13.50;99.90;;;;;;5134601;28;19976;-71
2022/03/16 13:50:00;;;;;;;;;;;13.50;99.90;;;;;;5116111;28;19924;-73
2022/03/16 13:52:27;;;;;;;;;;;13.50;99.90;;;;;;5098799;28;19938;-72
2022/03/16 13:54:54;;;;;;;;;;;13.50;99.90;;;;;;5116131;28;19929;-70
2022/03/16 13:57:22;;;;;;;;;;;13.50;99.90;;;;;;5150579;27;19923;-69
2022/03/16 13:59:53;;;;;;;;;;;13.50;99.90;;;;;;5150815;27;19928;-72
2022/03/16 14:02:22;;;;;;;;;;;13.40;99.90;;;;;;5134395;28;19934;-70
2022/03/16 14:04:55;;;;;;;;;;;13.40;99.90;;;;;;5134382;28;20022;-70
2022/03/16 14:07:30;;;;;;;;;;;13.40;99.90;;;;;;5134186;28;19927;-71
2022/03/16 14:10:03;;;;;;;;;;;13.30;99.90;;;;;;5116035;28;19923;-70
2022/03/16 14:12:32;;;;;;;;;;;13.30;99.90;;;;;;5116412;27;20318;-70
2022/03/16 14:15:18;;;;;;;;;;;13.30;99.90;;;;;;5138212;27;20353;-72
2022/03/16 14:18:00;;;;;;;;;;;13.20;99.90;;;;;;5138079;27;19924;-70
2022/03/16 14:20:32;;;;;;;;;;;13.20;99.90;;;;;;5138161;27;19968;-73
2022/03/16 14:22:58;;;;;;;;;;;13.30;99.90;;;;;;5138191;27;19924;-70
2022/03/16 14:25:24;;;;;;;;;;;13.40;99.90;;;;;;5137720;27;19924;-70
2022/03/16 14:27:50;;;;;;;;;;;13.50;99.90;;;;;;5137898;27;19924;-70
2022/03/16 14:30:23;;;;;;;;;;;13.50;99.90;;;;;;5119363;27;19938;-70
2022/03/16 14:32:49;;;;;;;;;;;13.50;99.90;;;;;;5137048;27;19931;-71
2022/03/16 14:35:15;;;;;;;;;;;13.60;99.90;;;;;;5138003;27;20411;-72
2022/03/16 14:37:41;;;;;;;;;;;13.40;99.90;;;;;;5119192;27;19924;-71
2022/03/16 14:40:07;;;;;;;;;;;13.60;99.90;;;;;;5137719;27;19976;-70
2022/03/16 14:42:32;;;;;;;;;;;13.60;99.90;;;;;;5119526;27;20382;-71
2022/03/16 14:44:58;;;;;;;;;;;13.60;99.90;;;;;;5137640;27;19972;-69